Time;durP1;ratioP1;P1;durP2;ratioP2;P2;SDS_P1;SDS_P2;PMS_P1;PMS_P2;Temp;Humidity;BMP_temperature;BMP_pressure;BME280_temperature;BME280_humidity;BME280_pressure;Samples;Min_cycle;Max_cycle;Signal;HPM_P1;HPM_P2
2021/04/19 00:00:37;;;;;;;0.10;0.10;;;;;;;;;;5092957;28;20211;-73
2021/04/19 00:03:03;;;;;;;0.10;0.10;;;;;;;;;;5086712;28;20199;-73
2021/04/19 00:05:29;;;;;;;0.10;0.10;;;;;;;;;;5104533;28;20198;-74
2021/04/19 00:07:56;;;;;;;0.10;0.10;;;;;;;;;;5092495;28;20218;-72
2021/04/19 00:10:22;;;;;;;0.20;0.20;;;;;;;;;;5106175;28;20206;-73
2021/04/19 00:12:48;;;;;;;0.10;0.10;;;;;;;;;;5095999;28;20203;-72
2021/04/19 00:15:19;;;;;;;0.10;0.10;;;;;;;;;;5090624;28;20516;-71
2021/04/19 00:17:45;;;;;;;0.10;0.10;;;;;;;;;;5098288;28;20207;-72
2021/04/19 00:20:11;;;;;;;0.20;0.20;;;;;;;;;;5099081;28;20206;-73
2021/04/19 00:22:38;;;;;;;0.20;0.20;;;;;;;;;;5098221;28;20230;-73
2021/04/19 00:25:04;;;;;;;0.10;0.10;;;;;;;;;;5100753;28;20271;-73
2021/04/19 00:27:30;;;;;;;0.10;0.10;;;;;;;;;;5089907;28;20429;-73
2021/04/19 00:29:56;;;;;;;0.10;0.10;;;;;;;;;;5085840;28;20222;-74
2021/04/19 00:32:22;;;;;;;0.20;0.20;;;;;;;;;;5085356;28;20210;-72
2021/04/19 00:34:47;;;;;;;0.10;0.10;;;;;;;;;;5100158;28;20198;-74
2021/04/19 00:37:13;;;;;;;0.17;0.17;;;;;;;;;;5092136;28;20277;-73
2021/04/19 00:39:40;;;;;;;0.20;0.20;;;;;;;;;;5105726;28;20202;-73
2021/04/19 00:42:06;;;;;;;0.20;0.20;;;;;;;;;;5087101;28;20218;-73
2021/04/19 00:44:32;;;;;;;0.10;0.10;;;;;;;;;;5091233;28;20227;-73
2021/04/19 00:46:58;;;;;;;0.20;0.20;;;;;;;;;;5091709;28;20203;-72
2021/04/19 00:49:24;;;;;;;0.10;0.10;;;;;;;;;;5100024;28;20518;-72
2021/04/19 00:51:50;;;;;;;0.13;0.13;;;;;;;;;;5085829;28;20199;-73
2021/04/19 00:54:17;;;;;;;0.20;0.20;;;;;;;;;;5092751;28;20206;-72
2021/04/19 00:56:47;;;;;;;0.10;0.10;;;;;;;;;;5092978;28;20210;-73
2021/04/19 00:59:13;;;;;;;0.10;0.10;;;;;;;;;;5101186;28;20347;-73
2021/04/19 01:01:39;;;;;;;0.10;0.10;;;;;;;;;;5092376;28;20290;-73
2021/04/19 01:04:05;;;;;;;0.10;0.10;;;;;;;;;;5092008;28;20207;-73
2021/04/19 01:06:30;;;;;;;0.20;0.20;;;;;;;;;;5093048;28;20389;-73
2021/04/19 01:08:56;;;;;;;0.17;0.17;;;;;;;;;;5089895;28;20227;-73
2021/04/19 01:11:22;;;;;;;0.10;0.10;;;;;;;;;;5084749;28;20391;-73
2021/04/19 01:13:48;;;;;;;0.10;0.10;;;;;;;;;;5102301;28;20217;-72
2021/04/19 01:16:14;;;;;;;0.20;0.20;;;;;;;;;;5089827;28;20207;-72
2021/04/19 01:18:40;;;;;;;0.10;0.10;;;;;;;;;;5092345;28;20237;-72
2021/04/19 01:21:06;;;;;;;0.10;0.10;;;;;;;;;;5104883;28;20244;-72
2021/04/19 01:23:32;;;;;;;0.20;0.20;;;;;;;;;;5085460;28;20226;-73
2021/04/19 01:25:58;;;;;;;0.20;0.20;;;;;;;;;;5089987;28;20199;-73
2021/04/19 01:28:24;;;;;;;0.17;0.17;;;;;;;;;;5089851;28;20241;-73
2021/04/19 01:30:50;;;;;;;0.10;0.10;;;;;;;;;;5088009;28;20227;-73
2021/04/19 01:33:16;;;;;;;0.20;0.20;;;;;;;;;;5098327;28;20221;-73
2021/04/19 01:35:43;;;;;;;0.20;0.20;;;;;;;;;;5088978;28;20205;-73
2021/04/19 01:38:10;;;;;;;0.10;0.10;;;;;;;;;;5084980;28;20210;-72
2021/04/19 01:40:36;;;;;;;0.10;0.10;;;;;;;;;;5097449;28;20510;-73
2021/04/19 01:43:03;;;;;;;0.17;0.17;;;;;;;;;;5083561;28;20220;-73
2021/04/19 01:45:29;;;;;;;0.10;0.10;;;;;;;;;;5084542;28;20203;-73
2021/04/19 01:47:55;;;;;;;0.10;0.10;;;;;;;;;;5084422;28;20361;-73
2021/04/19 01:50:21;;;;;;;0.10;0.10;;;;;;;;;;5084549;28;20432;-74
2021/04/19 01:52:47;;;;;;;0.20;0.20;;;;;;;;;;5085725;28;20256;-73
2021/04/19 01:55:15;;;;;;;0.10;0.10;;;;;;;;;;5086517;28;20210;-73
2021/04/19 01:57:41;;;;;;;0.10;0.10;;;;;;;;;;5084175;28;20202;-73
2021/04/19 02:00:08;;;;;;;0.20;0.20;;;;;;;;;;5096871;28;20210;-73
2021/04/19 02:02:37;;;;;;;0.10;0.10;;;;;;;;;;5088658;28;20233;-71
2021/04/19 02:05:07;;;;;;;0.10;0.10;;;;;;;;;;5088400;28;20268;-73
2021/04/19 02:07:37;;;;;;;0.10;0.10;;;;;;;;;;5095542;28;20210;-73
2021/04/19 02:10:04;;;;;;;0.10;0.10;;;;;;;;;;5090504;28;20416;-73
2021/04/19 02:12:38;;;;;;;0.20;0.20;;;;;;;;;;5091985;28;20206;-72
2021/04/19 02:15:06;;;;;;;0.20;0.20;;;;;;;;;;5086981;28;20793;-73
2021/04/19 02:17:37;;;;;;;0.20;0.20;;;;;;;;;;5086614;28;20298;-72
2021/04/19 02:20:06;;;;;;;0.10;0.10;;;;;;;;;;5088823;28;20252;-73
2021/04/19 02:22:35;;;;;;;0.10;0.10;;;;;;;;;;5096052;28;20238;-72
2021/04/19 02:25:05;;;;;;;0.13;0.13;;;;;;;;;;5094284;28;20225;-73
2021/04/19 02:27:32;;;;;;;0.20;0.20;;;;;;;;;;5089772;28;20248;-73
2021/04/19 02:29:59;;;;;;;0.10;0.10;;;;;;;;;;5088766;28;20264;-73
2021/04/19 02:32:27;;;;;;;0.10;0.10;;;;;;;;;;5092696;28;20388;-73
2021/04/19 02:34:54;;;;;;;0.13;0.13;;;;;;;;;;5090170;28;20272;-72
2021/04/19 02:37:20;;;;;;;0.20;0.20;;;;;;;;;;5085611;28;20410;-73
2021/04/19 02:39:47;;;;;;;0.20;0.20;;;;;;;;;;5086127;28;20209;-73
2021/04/19 02:42:14;;;;;;;0.20;0.20;;;;;;;;;;5091641;28;20206;-73
2021/04/19 02:44:40;;;;;;;0.20;0.20;;;;;;;;;;5098547;28;20249;-73
2021/04/19 02:47:07;;;;;;;0.20;0.20;;;;;;;;;;5085293;28;20202;-73
2021/04/19 02:49:35;;;;;;;0.20;0.20;;;;;;;;;;5091092;28;20229;-74
2021/04/19 02:52:03;;;;;;;0.20;0.20;;;;;;;;;;5091305;28;20538;-73
2021/04/19 02:54:29;;;;;;;0.20;0.20;;;;;;;;;;5093699;28;20434;-72
2021/04/19 02:56:54;;;;;;;0.20;0.20;;;;;;;;;;5092739;28;20201;-73
2021/04/19 02:59:21;;;;;;;0.20;0.20;;;;;;;;;;5088827;28;20209;-73
2021/04/19 03:01:49;;;;;;;0.20;0.20;;;;;;;;;;5089233;28;20432;-74
2021/04/19 03:04:16;;;;;;;0.20;0.20;;;;;;;;;;5095363;28;20213;-73
2021/04/19 03:06:44;;;;;;;0.20;0.20;;;;;;;;;;5093120;28;20217;-73
2021/04/19 03:09:10;;;;;;;0.20;0.20;;;;;;;;;;5098171;28;20235;-73
2021/04/19 03:11:37;;;;;;;0.20;0.20;;;;;;;;;;5090993;28;20210;-73
2021/04/19 03:14:05;;;;;;;0.20;0.20;;;;;;;;;;5094292;28;20246;-73
2021/04/19 03:16:31;;;;;;;0.20;0.20;;;;;;;;;;5088020;28;20490;-72
2021/04/19 03:18:58;;;;;;;0.20;0.20;;;;;;;;;;5086557;28;20207;-73
2021/04/19 03:21:25;;;;;;;0.20;0.20;;;;;;;;;;5092924;28;20203;-73
2021/04/19 03:23:53;;;;;;;0.20;0.20;;;;;;;;;;5092025;28;20245;-72
2021/04/19 03:26:20;;;;;;;0.20;0.20;;;;;;;;;;5095578;28;20197;-72
2021/04/19 03:28:47;;;;;;;0.20;0.20;;;;;;;;;;5093992;28;20249;-73
2021/04/19 03:31:15;;;;;;;0.10;0.10;;;;;;;;;;5088549;28;20529;-73
2021/04/19 03:33:41;;;;;;;0.20;0.20;;;;;;;;;;5088620;28;20267;-74
2021/04/19 03:36:08;;;;;;;0.30;0.30;;;;;;;;;;5096555;28;20260;-72
2021/04/19 03:38:35;;;;;;;0.20;0.20;;;;;;;;;;5095565;28;20390;-73
2021/04/19 03:41:01;;;;;;;0.20;0.20;;;;;;;;;;5092114;28;20208;-73
2021/04/19 03:43:27;;;;;;;0.20;0.20;;;;;;;;;;5095486;28;20194;-73
2021/04/19 03:45:54;;;;;;;0.20;0.20;;;;;;;;;;5091390;28;20210;-73
2021/04/19 03:48:22;;;;;;;0.20;0.20;;;;;;;;;;5091948;28;20586;-73
2021/04/19 03:50:49;;;;;;;0.10;0.10;;;;;;;;;;5092904;28;20244;-73
2021/04/19 03:53:16;;;;;;;0.20;0.20;;;;;;;;;;5092341;28;20213;-73
2021/04/19 03:55:44;;;;;;;0.20;0.20;;;;;;;;;;5092235;28;20224;-73
2021/04/19 03:58:11;;;;;;;0.20;0.20;;;;;;;;;;5096512;28;20225;-74
2021/04/19 04:00:39;;;;;;;0.20;0.20;;;;;;;;;;5095867;28;20213;-73
2021/04/19 04:03:05;;;;;;;0.20;0.20;;;;;;;;;;5092583;28;20278;-74
2021/04/19 04:05:30;;;;;;;0.20;0.20;;;;;;;;;;5089613;28;20573;-74
2021/04/19 04:07:56;;;;;;;0.20;0.20;;;;;;;;;;5097359;28;20297;-74
2021/04/19 04:10:22;;;;;;;0.20;0.20;;;;;;;;;;5096277;28;20245;-72
2021/04/19 04:12:49;;;;;;;0.20;0.20;;;;;;;;;;5090199;28;20209;-73
2021/04/19 04:15:16;;;;;;;0.20;0.20;;;;;;;;;;5085128;28;20206;-74
2021/04/19 04:17:42;;;;;;;0.20;0.20;;;;;;;;;;5094602;28;20276;-73
2021/04/19 04:20:08;;;;;;;0.20;0.20;;;;;;;;;;5087475;28;20262;-74
2021/04/19 04:22:34;;;;;;;0.20;0.20;;;;;;;;;;5090414;28;20417;-74
2021/04/19 04:25:00;;;;;;;0.20;0.20;;;;;;;;;;5092293;28;20213;-73
2021/04/19 04:27:26;;;;;;;0.20;0.20;;;;;;;;;;5098439;28;20230;-74
2021/04/19 04:29:53;;;;;;;0.10;0.10;;;;;;;;;;5089441;28;20218;-75
2021/04/19 04:32:18;;;;;;;0.13;0.13;;;;;;;;;;5088715;28;20205;-75
2021/04/19 04:34:44;;;;;;;0.20;0.20;;;;;;;;;;5094296;28;20206;-75
2021/04/19 04:37:10;;;;;;;0.20;0.20;;;;;;;;;;5091546;28;20227;-73
2021/04/19 04:39:36;;;;;;;0.20;0.20;;;;;;;;;;5097907;28;20200;-73
2021/04/19 04:42:03;;;;;;;0.20;0.20;;;;;;;;;;5092213;28;20225;-73
2021/04/19 04:44:32;;;;;;;0.10;0.10;;;;;;;;;;5094817;28;20210;-73
2021/04/19 04:47:08;;;;;;;0.20;0.20;;;;;;;;;;5089303;28;20324;-73
2021/04/19 04:49:38;;;;;;;0.20;0.20;;;;;;;;;;5095838;28;20415;-73
2021/04/19 04:52:05;;;;;;;0.10;0.10;;;;;;;;;;5097588;28;20272;-73
2021/04/19 04:54:31;;;;;;;0.20;0.20;;;;;;;;;;5086238;28;20229;-73
2021/04/19 04:56:58;;;;;;;0.20;0.20;;;;;;;;;;5085209;28;20210;-73
2021/04/19 04:59:26;;;;;;;0.20;0.20;;;;;;;;;;5095315;28;20521;-73
2021/04/19 05:01:52;;;;;;;0.13;0.13;;;;;;;;;;5093046;28;20209;-73
2021/04/19 05:04:19;;;;;;;0.20;0.20;;;;;;;;;;5091331;28;20206;-72
2021/04/19 05:06:45;;;;;;;0.20;0.20;;;;;;;;;;5091991;28;20217;-73
2021/04/19 05:09:11;;;;;;;0.10;0.10;;;;;;;;;;5094848;28;20415;-72
2021/04/19 05:11:38;;;;;;;0.10;0.10;;;;;;;;;;5088991;28;20211;-73
2021/04/19 05:14:04;;;;;;;0.20;0.20;;;;;;;;;;5095289;28;20378;-73
2021/04/19 05:16:30;;;;;;;0.20;0.20;;;;;;;;;;5088450;28;20203;-72
2021/04/19 05:18:57;;;;;;;0.10;0.10;;;;;;;;;;5089887;28;20225;-72
2021/04/19 05:21:23;;;;;;;0.10;0.10;;;;;;;;;;5085655;28;20470;-73
2021/04/19 05:23:49;;;;;;;0.20;0.20;;;;;;;;;;5089210;28;20296;-73
2021/04/19 05:26:16;;;;;;;0.13;0.13;;;;;;;;;;5090963;28;20201;-74
2021/04/19 05:28:41;;;;;;;0.10;0.10;;;;;;;;;;5093374;28;20228;-74
2021/04/19 05:31:07;;;;;;;0.10;0.10;;;;;;;;;;5087375;28;20454;-73
2021/04/19 05:33:33;;;;;;;0.20;0.20;;;;;;;;;;5086012;28;20210;-73
2021/04/19 05:35:59;;;;;;;0.10;0.10;;;;;;;;;;5087320;28;20215;-73
2021/04/19 05:38:26;;;;;;;0.17;0.17;;;;;;;;;;5093251;28;20202;-73
2021/04/19 05:40:52;;;;;;;0.20;0.20;;;;;;;;;;5097262;28;20214;-73
2021/04/19 05:43:18;;;;;;;0.10;0.10;;;;;;;;;;5095010;28;20495;-73
2021/04/19 05:45:45;;;;;;;0.53;0.53;;;;;;;;;;5092594;28;20209;-72
2021/04/19 05:48:11;;;;;;;0.20;0.20;;;;;;;;;;5090617;28;20206;-71
2021/04/19 05:50:36;;;;;;;0.10;0.10;;;;;;;;;;5088829;28;20271;-72
2021/04/19 05:53:02;;;;;;;0.20;0.20;;;;;;;;;;5092371;28;20206;-74
2021/04/19 05:55:30;;;;;;;0.20;0.20;;;;;;;;;;5085284;28;20225;-73
2021/04/19 05:58:01;;;;;;;0.20;0.20;;;;;;;;;;5097299;28;20210;-72
2021/04/19 06:00:30;;;;;;;0.17;0.17;;;;;;;;;;5089937;28;20238;-72
2021/04/19 06:03:00;;;;;;;0.17;0.17;;;;;;;;;;5084158;28;20271;-72
2021/04/19 06:05:28;;;;;;;0.20;0.20;;;;;;;;;;5093233;28;20214;-73
2021/04/19 06:07:59;;;;;;;0.20;0.20;;;;;;;;;;5087810;28;20217;-73
2021/04/19 06:10:26;;;;;;;0.17;0.17;;;;;;;;;;5093528;28;20510;-74
2021/04/19 06:12:53;;;;;;;0.20;0.20;;;;;;;;;;5092043;28;20212;-73
2021/04/19 06:15:21;;;;;;;0.20;0.20;;;;;;;;;;5094682;28;20207;-74
2021/04/19 06:17:48;;;;;;;0.20;0.20;;;;;;;;;;5090065;28;20262;-74
2021/04/19 06:20:15;;;;;;;0.20;0.20;;;;;;;;;;5091456;28;20206;-73
2021/04/19 06:22:41;;;;;;;0.10;0.10;;;;;;;;;;5095208;28;20294;-72
2021/04/19 06:25:09;;;;;;;0.13;0.13;;;;;;;;;;5086434;28;20212;-74
2021/04/19 06:27:34;;;;;;;0.10;0.10;;;;;;;;;;5101953;28;20220;-75
2021/04/19 06:30:12;;;;;;;0.20;0.20;;;;;;;;;;5089514;28;20429;-75
2021/04/19 06:32:39;;;;;;;0.20;0.20;;;;;;;;;;5090402;28;20214;-74
2021/04/19 06:35:06;;;;;;;0.10;0.10;;;;;;;;;;5095697;28;20206;-76
2021/04/19 06:37:32;;;;;;;0.10;0.10;;;;;;;;;;5089254;28;20215;-75
2021/04/19 06:39:58;;;;;;;0.20;0.20;;;;;;;;;;5099274;28;20216;-76
2021/04/19 06:42:24;;;;;;;0.10;0.10;;;;;;;;;;5089114;28;20428;-76
2021/04/19 06:44:50;;;;;;;0.20;0.20;;;;;;;;;;5093814;28;20237;-76
2021/04/19 06:47:17;;;;;;;0.10;0.10;;;;;;;;;;5098219;28;20214;-77
2021/04/19 06:49:46;;;;;;;0.20;0.20;;;;;;;;;;5097570;28;20225;-76
2021/04/19 06:52:12;;;;;;;0.10;0.10;;;;;;;;;;5095221;28;20202;-75
2021/04/19 06:54:38;;;;;;;0.10;0.10;;;;;;;;;;5091942;28;20541;-76
2021/04/19 06:57:07;;;;;;;0.10;0.10;;;;;;;;;;5092845;28;20207;-76
2021/04/19 06:59:33;;;;;;;0.17;0.17;;;;;;;;;;5092574;28;20208;-75
2021/04/19 07:01:59;;;;;;;0.10;0.10;;;;;;;;;;5100261;28;20216;-75
2021/04/19 07:04:27;;;;;;;0.20;0.20;;;;;;;;;;5083739;28;20247;-76
2021/04/19 07:06:54;;;;;;;0.10;0.10;;;;;;;;;;5100657;28;20501;-75
2021/04/19 07:09:24;;;;;;;0.10;0.10;;;;;;;;;;5088521;28;20219;-74
2021/04/19 07:11:52;;;;;;;0.17;0.17;;;;;;;;;;5088707;28;20266;-74
2021/04/19 07:14:19;;;;;;;0.10;0.10;;;;;;;;;;5089323;28;20196;-75
2021/04/19 07:16:46;;;;;;;0.10;0.10;;;;;;;;;;5094697;28;20282;-75
2021/04/19 07:19:12;;;;;;;0.10;0.10;;;;;;;;;;5099942;28;20510;-74
2021/04/19 07:21:39;;;;;;;0.10;0.10;;;;;;;;;;5086204;28;20214;-76
2021/04/19 07:24:05;;;;;;;0.10;0.10;;;;;;;;;;5094083;28;20231;-74
2021/04/19 07:26:31;;;;;;;0.10;0.10;;;;;;;;;;5086736;28;20218;-77
2021/04/19 07:28:57;;;;;;;0.10;0.10;;;;;;;;;;5097572;28;20255;-77
2021/04/19 07:31:23;;;;;;;0.20;0.20;;;;;;;;;;5092273;28;20204;-81
2021/04/19 07:33:49;;;;;;;0.20;0.20;;;;;;;;;;5094343;28;20263;-77
2021/04/19 07:36:19;;;;;;;0.10;0.10;;;;;;;;;;5095747;28;20454;-78
2021/04/19 07:38:46;;;;;;;0.10;0.10;;;;;;;;;;5096937;28;20208;-77
2021/04/19 07:41:13;;;;;;;0.10;0.10;;;;;;;;;;5101428;28;20207;-79
2021/04/19 07:43:40;;;;;;;0.10;0.10;;;;;;;;;;5094811;28;20214;-76
2021/04/19 07:46:08;;;;;;;0.10;0.10;;;;;;;;;;5100092;28;20540;-77
2021/04/19 07:48:37;;;;;;;0.10;0.10;;;;;;;;;;5101593;28;20210;-78
2021/04/19 07:51:18;;;;;;;0.10;0.10;;;;;;;;;;5104324;28;20272;-80
2021/04/19 07:53:44;;;;;;;0.13;0.13;;;;;;;;;;5091507;28;20429;-82
2021/04/19 07:56:16;;;;;;;0.10;0.10;;;;;;;;;;5092597;28;20199;-81
2021/04/19 07:58:42;;;;;;;0.10;0.10;;;;;;;;;;5099336;28;20197;-78
2021/04/19 08:01:08;;;;;;;0.10;0.10;;;;;;;;;;5099797;28;20491;-81
2021/04/19 08:03:36;;;;;;;0.10;0.10;;;;;;;;;;5089469;28;20437;-77
2021/04/19 08:06:02;;;;;;;0.27;0.27;;;;;;;;;;5091901;28;20410;-77
2021/04/19 08:08:30;;;;;;;0.10;0.10;;;;;;;;;;5099800;28;20208;-77
2021/04/19 08:11:06;;;;;;;0.10;0.10;;;;;;;;;;5101072;28;20213;-78
2021/04/19 08:13:33;;;;;;;0.10;0.10;;;;;;;;;;5105026;28;20244;-80
2021/04/19 08:16:12;;;;;;;0.10;0.10;;;;;;;;;;5097427;28;20204;-79
2021/04/19 08:18:39;;;;;;;0.10;0.10;;;;;;;;;;5093017;28;20275;-76
2021/04/19 08:21:06;;;;;;;0.40;0.40;;;;;;;;;;5092862;28;20218;-77
2021/04/19 08:23:37;;;;;;;0.10;0.10;;;;;;;;;;5089205;28;20230;-75
2021/04/19 08:26:03;;;;;;;0.10;0.10;;;;;;;;;;5087113;28;20525;-76
2021/04/19 08:28:29;;;;;;;0.10;0.10;;;;;;;;;;5096466;28;20196;-77
2021/04/19 08:30:58;;;;;;;0.10;0.10;;;;;;;;;;5086313;28;20216;-77
2021/04/19 08:33:25;;;;;;;0.10;0.10;;;;;;;;;;5091078;28;20466;-78
2021/04/19 08:35:52;;;;;;;0.10;0.10;;;;;;;;;;5091179;28;20209;-77
2021/04/19 08:38:19;;;;;;;0.20;0.20;;;;;;;;;;5091594;28;20250;-78
2021/04/19 08:40:45;;;;;;;0.10;0.10;;;;;;;;;;5103647;28;20209;-80
2021/04/19 08:43:15;;;;;;;0.10;0.10;;;;;;;;;;5086531;28;20528;-78
2021/04/19 08:45:42;;;;;;;0.10;0.10;;;;;;;;;;5093952;28;20211;-78
2021/04/19 08:48:10;;;;;;;0.10;0.10;;;;;;;;;;5092118;28;20378;-83
2021/04/19 08:50:37;;;;;;;0.10;0.10;;;;;;;;;;5086140;28;20264;-80
2021/04/19 08:53:03;;;;;;;0.10;0.10;;;;;;;;;;5093620;28;20198;-71
2021/04/19 08:55:30;;;;;;;0.10;0.10;;;;;;;;;;5099963;28;20203;-78
2021/04/19 08:57:59;;;;;;;0.10;0.10;;;;;;;;;;5089474;28;20251;-77
2021/04/19 09:00:26;;;;;;;23.93;4.43;;;;;;;;;;5090983;28;20202;-77
2021/04/19 09:02:52;;;;;;;0.23;0.23;;;;;;;;;;5093919;28;20211;-77
2021/04/19 09:05:23;;;;;;;0.10;0.10;;;;;;;;;;5098016;28;20240;-76
2021/04/19 09:07:49;;;;;;;0.10;0.10;;;;;;;;;;5096832;28;20199;-78
2021/04/19 09:10:16;;;;;;;0.10;0.10;;;;;;;;;;5100613;28;20247;-77
2021/04/19 09:12:42;;;;;;;1.03;1.00;;;;;;;;;;5101363;28;20364;-77
2021/04/19 09:15:09;;;;;;;0.10;0.10;;;;;;;;;;5096473;28;20210;-76
2021/04/19 09:17:37;;;;;;;0.10;0.10;;;;;;;;;;5087326;28;20207;-78
2021/04/19 09:20:04;;;;;;;0.10;0.10;;;;;;;;;;5093914;28;20196;-78
2021/04/19 09:22:30;;;;;;;0.10;0.10;;;;;;;;;;5097739;28;20227;-78
2021/04/19 09:24:59;;;;;;;0.10;0.10;;;;;;;;;;5095009;28;20223;-78
2021/04/19 09:27:40;;;;;;;0.10;0.10;;;;;;;;;;5103638;28;20313;-76
2021/04/19 09:30:26;;;;;;;0.10;0.10;;;;;;;;;;5084995;28;20307;-78
2021/04/19 09:33:06;;;;;;;9.43;8.80;;;;;;;;;;5090818;28;20206;-78
2021/04/19 09:35:42;;;;;;;0.10;0.10;;;;;;;;;;5086454;28;20509;-76
2021/04/19 09:38:10;;;;;;;0.10;0.10;;;;;;;;;;5091882;28;20240;-79
2021/04/19 09:40:45;;;;;;;0.10;0.10;;;;;;;;;;5102743;28;20373;-79
2021/04/19 09:43:12;;;;;;;0.10;0.10;;;;;;;;;;5092239;28;20248;-78
2021/04/19 09:45:51;;;;;;;0.17;0.17;;;;;;;;;;5087027;28;20242;-77
2021/04/19 09:48:40;;;;;;;0.10;0.10;;;;;;;;;;5096211;28;20206;-78
2021/04/19 09:51:12;;;;;;;0.10;0.10;;;;;;;;;;5090376;28;20224;-76
2021/04/19 09:53:38;;;;;;;0.10;0.10;;;;;;;;;;5095457;28;20223;-78
2021/04/19 09:56:05;;;;;;;0.10;0.10;;;;;;;;;;5099569;28;20206;-78
2021/04/19 09:58:31;;;;;;;0.20;0.20;;;;;;;;;;5093829;28;20519;-76
2021/04/19 10:00:57;;;;;;;0.10;0.10;;;;;;;;;;5099119;28;20196;-77
2021/04/19 10:03:23;;;;;;;0.10;0.10;;;;;;;;;;5100022;28;20506;-77
2021/04/19 10:05:50;;;;;;;0.10;0.10;;;;;;;;;;5094430;28;20305;-75
2021/04/19 10:08:18;;;;;;;0.10;0.10;;;;;;;;;;5090880;28;20209;-75
2021/04/19 10:10:50;;;;;;;0.10;0.10;;;;;;;;;;5102325;28;20527;-77
2021/04/19 10:13:16;;;;;;;0.10;0.10;;;;;;;;;;5098102;28;20200;-78
2021/04/19 10:15:42;;;;;;;0.10;0.10;;;;;;;;;;5101621;28;20273;-77
2021/04/19 10:18:12;;;;;;;0.10;0.10;;;;;;;;;;5099643;28;20258;-77
2021/04/19 10:20:40;;;;;;;0.10;0.10;;;;;;;;;;5104462;28;20246;-78
2021/04/19 10:23:07;;;;;;;0.10;0.10;;;;;;;;;;5095248;28;20278;-77
2021/04/19 10:25:33;;;;;;;0.20;0.20;;;;;;;;;;5091341;28;20210;-78
2021/04/19 10:28:00;;;;;;;0.10;0.10;;;;;;;;;;5088664;28;20316;-79
2021/04/19 10:30:27;;;;;;;0.10;0.10;;;;;;;;;;5092109;28;20288;-77
2021/04/19 10:32:53;;;;;;;0.10;0.10;;;;;;;;;;5097029;28;20205;-75
2021/04/19 10:35:29;;;;;;;0.10;0.10;;;;;;;;;;5094135;28;20264;-77
2021/04/19 10:37:55;;;;;;;0.20;0.20;;;;;;;;;;5101502;28;20209;-78
2021/04/19 10:40:23;;;;;;;0.10;0.10;;;;;;;;;;5095497;28;20521;-78
2021/04/19 10:42:49;;;;;;;0.10;0.10;;;;;;;;;;5089600;28;20453;-78
2021/04/19 10:45:17;;;;;;;0.10;0.10;;;;;;;;;;5092252;28;20384;-78
2021/04/19 10:47:43;;;;;;;1.73;1.73;;;;;;;;;;5091776;28;20227;-76
2021/04/19 10:50:10;;;;;;;0.10;0.10;;;;;;;;;;5095729;28;20537;-74
2021/04/19 10:52:36;;;;;;;0.10;0.10;;;;;;;;;;5087234;28;20213;-76
2021/04/19 10:55:06;;;;;;;0.10;0.10;;;;;;;;;;5091355;28;20470;-74
2021/04/19 10:57:32;;;;;;;0.10;0.10;;;;;;;;;;5090652;28;20211;-77
2021/04/19 10:59:59;;;;;;;0.10;0.10;;;;;;;;;;5088907;28;20198;-75
2021/04/19 11:02:27;;;;;;;0.10;0.10;;;;;;;;;;5087880;28;20199;-75
2021/04/19 11:04:53;;;;;;;0.10;0.10;;;;;;;;;;5084307;28;20207;-74
2021/04/19 11:07:23;;;;;;;0.10;0.10;;;;;;;;;;5092104;28;20492;-78
2021/04/19 11:10:07;;;;;;;0.10;0.10;;;;;;;;;;5085067;28;20239;-76
2021/04/19 11:12:33;;;;;;;0.10;0.10;;;;;;;;;;5091723;28;20227;-75
2021/04/19 11:15:07;;;;;;;0.10;0.10;;;;;;;;;;5087699;28;20249;-78
2021/04/19 11:17:36;;;;;;;0.05;0.05;;;;;;;;;;5097977;28;20238;-78
2021/04/19 11:20:17;;;;;;;1.33;1.33;;;;;;;;;;5094699;28;20407;-77
2021/04/19 11:22:43;;;;;;;0.10;0.10;;;;;;;;;;5093510;28;20248;-76
2021/04/19 11:25:14;;;;;;;0.00;0.00;;;;;;;;;;5096155;28;20211;-75
2021/04/19 11:27:40;;;;;;;0.00;0.00;;;;;;;;;;5098406;28;20213;-75
2021/04/19 11:30:16;;;;;;;0.10;0.10;;;;;;;;;;5102413;28;20224;-75
2021/04/19 11:32:43;;;;;;;0.10;0.10;;;;;;;;;;5093902;28;20240;-76
2021/04/19 11:35:21;;;;;;;0.00;0.00;;;;;;;;;;5091290;28;20214;-75
2021/04/19 11:37:57;;;;;;;0.50;0.50;;;;;;;;;;5093703;28;20202;-76
2021/04/19 11:40:28;;;;;;;0.00;0.00;;;;;;;;;;5091539;28;20207;-76
2021/04/19 11:42:55;;;;;;;0.08;0.08;;;;;;;;;;5097140;28;20548;-75
2021/04/19 11:45:24;;;;;;;0.15;0.15;;;;;;;;;;5092894;28;20210;-75
2021/04/19 11:47:52;;;;;;;0.00;0.00;;;;;;;;;;5096912;28;20313;-77
2021/04/19 11:50:18;;;;;;;0.00;0.00;;;;;;;;;;5096224;28;20245;-76
2021/04/19 11:52:45;;;;;;;0.00;0.00;;;;;;;;;;5098678;28;20210;-77
2021/04/19 11:55:12;;;;;;;0.05;0.05;;;;;;;;;;5093227;28;20203;-77
2021/04/19 11:57:40;;;;;;;0.00;0.00;;;;;;;;;;5104631;28;20213;-78
2021/04/19 12:00:07;;;;;;;0.00;0.00;;;;;;;;;;5096725;28;20198;-78
2021/04/19 12:02:42;;;;;;;0.00;0.00;;;;;;;;;;5087452;28;20525;-78
2021/04/19 12:05:13;;;;;;;0.10;0.10;;;;;;;;;;5090633;28;20210;-76
2021/04/19 12:07:52;;;;;;;0.00;0.00;;;;;;;;;;5097953;28;20229;-76
2021/04/19 12:10:18;;;;;;;0.00;0.00;;;;;;;;;;5098711;28;20274;-76
2021/04/19 12:12:46;;;;;;;0.10;0.10;;;;;;;;;;5100470;28;20206;-78
2021/04/19 12:15:13;;;;;;;0.00;0.00;;;;;;;;;;5096469;28;20300;-78
2021/04/19 12:17:39;;;;;;;0.10;0.10;;;;;;;;;;5102254;28;20370;-79
2021/04/19 12:20:06;;;;;;;0.03;0.03;;;;;;;;;;5098735;28;20366;-80
2021/04/19 12:22:33;;;;;;;0.03;0.03;;;;;;;;;;5092148;28;20281;-79
2021/04/19 12:24:59;;;;;;;0.00;0.00;;;;;;;;;;5094625;28;20215;-76
2021/04/19 12:27:25;;;;;;;0.00;0.00;;;;;;;;;;5097622;28;20443;-77
2021/04/19 12:29:51;;;;;;;0.10;0.10;;;;;;;;;;5099397;28;20483;-78
2021/04/19 12:32:17;;;;;;;0.00;0.00;;;;;;;;;;5086039;28;20234;-76
2021/04/19 12:34:43;;;;;;;0.00;0.00;;;;;;;;;;5098831;28;20261;-76
2021/04/19 12:37:09;;;;;;;0.03;0.03;;;;;;;;;;5101272;28;20203;-76
2021/04/19 12:39:36;;;;;;;0.00;0.00;;;;;;;;;;5097411;28;20195;-79
2021/04/19 12:42:02;;;;;;;0.00;0.00;;;;;;;;;;5092804;28;20239;-77
2021/04/19 12:44:28;;;;;;;0.10;0.10;;;;;;;;;;5101170;28;20551;-78
2021/04/19 12:46:54;;;;;;;0.00;0.00;;;;;;;;;;5101855;28;20280;-80
2021/04/19 12:49:21;;;;;;;0.10;0.10;;;;;;;;;;5093647;28;20233;-78
2021/04/19 12:51:48;;;;;;;0.10;0.10;;;;;;;;;;5101026;28;20205;-78
2021/04/19 12:54:15;;;;;;;0.38;0.38;;;;;;;;;;5102961;28;20277;-77
2021/04/19 12:56:42;;;;;;;0.15;0.15;;;;;;;;;;5097342;28;20206;-80
2021/04/19 12:59:08;;;;;;;0.10;0.10;;;;;;;;;;5093888;28;20274;-78
2021/04/19 13:01:34;;;;;;;0.05;0.05;;;;;;;;;;5089235;28;20212;-77
2021/04/19 13:04:00;;;;;;;0.10;0.10;;;;;;;;;;5096572;28;20379;-75
2021/04/19 13:06:27;;;;;;;0.10;0.10;;;;;;;;;;5094539;28;20218;-76
2021/04/19 13:08:56;;;;;;;0.10;0.10;;;;;;;;;;5098534;28;20204;-75
2021/04/19 13:11:22;;;;;;;0.10;0.10;;;;;;;;;;5100099;28;20321;-76
2021/04/19 13:13:49;;;;;;;0.10;0.10;;;;;;;;;;5095290;28;20214;-78
2021/04/19 13:16:15;;;;;;;0.00;0.00;;;;;;;;;;5096614;28;20273;-76
2021/04/19 13:18:41;;;;;;;0.10;0.10;;;;;;;;;;5102172;28;20267;-77
2021/04/19 13:21:09;;;;;;;0.10;0.10;;;;;;;;;;5101600;28;20204;-79
2021/04/19 13:23:35;;;;;;;0.00;0.00;;;;;;;;;;5093861;28;20249;-75
2021/04/19 13:26:01;;;;;;;0.20;0.20;;;;;;;;;;5093976;28;20264;-75
2021/04/19 13:28:27;;;;;;;0.10;0.10;;;;;;;;;;5093659;28;20399;-75
2021/04/19 13:30:54;;;;;;;0.10;0.10;;;;;;;;;;5089827;28;20255;-80
2021/04/19 13:33:21;;;;;;;0.10;0.10;;;;;;;;;;5092216;28;20210;-78
2021/04/19 13:35:47;;;;;;;0.03;0.03;;;;;;;;;;5089212;28;20476;-80
2021/04/19 13:38:13;;;;;;;0.08;0.08;;;;;;;;;;5094156;28;20205;-78
2021/04/19 13:40:39;;;;;;;0.10;0.10;;;;;;;;;;5094047;28;20203;-75
2021/04/19 13:43:05;;;;;;;0.10;0.10;;;;;;;;;;5094666;28;20244;-74
2021/04/19 13:45:31;;;;;;;0.10;0.10;;;;;;;;;;5094147;28;20285;-74
2021/04/19 13:47:58;;;;;;;0.10;0.10;;;;;;;;;;5091319;28;20276;-75
2021/04/19 13:50:24;;;;;;;0.05;0.05;;;;;;;;;;5086327;28;20270;-75
2021/04/19 13:52:50;;;;;;;0.05;0.05;;;;;;;;;;5089508;28;20213;-75
2021/04/19 13:55:17;;;;;;;0.10;0.10;;;;;;;;;;5091666;28;20227;-75
2021/04/19 13:57:43;;;;;;;0.10;0.10;;;;;;;;;;5092960;28;20205;-73
2021/04/19 14:00:11;;;;;;;0.10;0.10;;;;;;;;;;5089833;28;20264;-72
2021/04/19 14:02:37;;;;;;;0.08;0.08;;;;;;;;;;5091150;28;20509;-73
2021/04/19 14:05:04;;;;;;;0.10;0.10;;;;;;;;;;5093252;28;20207;-72
2021/04/19 14:07:30;;;;;;;0.10;0.10;;;;;;;;;;5094175;28;20499;-75
2021/04/19 14:09:56;;;;;;;0.10;0.10;;;;;;;;;;5088078;28;20522;-72
2021/04/19 14:12:23;;;;;;;0.55;0.55;;;;;;;;;;5088403;28;20383;-74
2021/04/19 14:14:49;;;;;;;0.08;0.08;;;;;;;;;;5088769;28;20527;-73
2021/04/19 14:17:15;;;;;;;0.05;0.05;;;;;;;;;;5087914;28;20208;-73
2021/04/19 14:19:41;;;;;;;0.08;0.08;;;;;;;;;;5091312;28;20201;-72
2021/04/19 14:22:08;;;;;;;0.30;0.30;;;;;;;;;;5085599;28;20229;-75
2021/04/19 14:24:35;;;;;;;0.00;0.00;;;;;;;;;;5090207;28;20239;-73
2021/04/19 14:27:01;;;;;;;0.20;0.20;;;;;;;;;;5089239;28;20211;-74
2021/04/19 14:29:27;;;;;;;0.08;0.08;;;;;;;;;;5093356;28;20284;-72
2021/04/19 14:31:53;;;;;;;0.10;0.10;;;;;;;;;;5091146;28;20200;-71
2021/04/19 14:34:20;;;;;;;0.10;0.10;;;;;;;;;;5087741;28;20216;-76
2021/04/19 14:36:46;;;;;;;0.10;0.10;;;;;;;;;;5090395;28;20204;-74
2021/04/19 14:39:13;;;;;;;0.05;0.05;;;;;;;;;;5090989;28;20324;-71
2021/04/19 14:41:39;;;;;;;0.00;0.00;;;;;;;;;;5086748;28;20303;-72
2021/04/19 14:44:05;;;;;;;0.05;0.05;;;;;;;;;;5092307;28;20304;-75